sensor_id;sensor_type;location;lat;lon;timestamp;pressure;altitude;pressure_sealevel;temperature;humidity
18697;BME280;22617;43.690;27.956;2023-11-22T00:02:42;98205.41;;;10.13;100.00
18697;BME280;22617;43.690;27.956;2023-11-22T00:07:46;98195.84;;;10.12;100.00
18697;BME280;22617;43.690;27.956;2023-11-22T00:12:49;98198.50;;;10.11;100.00
18697;BME280;22617;43.690;27.956;2023-11-22T00:17:54;98188.09;;;10.09;100.00
18697;BME280;22617;43.690;27.956;2023-11-22T00:22:59;98198.47;;;10.12;100.00
18697;BME280;22617;43.690;27.956;2023-11-22T00:28:03;98193.25;;;10.12;100.00
18697;BME280;22617;43.690;27.956;2023-11-22T00:33:09;98199.25;;;10.20;100.00
18697;BME280;22617;43.690;27.956;2023-11-22T00:38:13;98202.75;;;10.18;100.00
18697;BME280;22617;43.690;27.956;2023-11-22T00:43:16;98211.28;;;10.27;100.00
18697;BME280;22617;43.690;27.956;2023-11-22T00:48:22;98204.25;;;10.32;100.00
18697;BME280;22617;43.690;27.956;2023-11-22T00:53:26;98205.19;;;10.28;100.00
18697;BME280;22617;43.690;27.956;2023-11-22T00:58:29;98203.47;;;10.27;100.00
18697;BME280;22617;43.690;27.956;2023-11-22T01:03:34;98189.66;;;10.24;99.47
18697;BME280;22617;43.690;27.956;2023-11-22T01:08:38;98183.69;;;10.14;98.69
18697;BME280;22617;43.690;27.956;2023-11-22T01:13:42;98186.34;;;10.11;99.01
18697;BME280;22617;43.690;27.956;2023-11-22T01:18:47;98174.38;;;9.99;99.25
18697;BME280;22617;43.690;27.956;2023-11-22T01:23:50;98180.53;;;9.94;98.82
18697;BME280;22617;43.690;27.956;2023-11-22T01:28:54;98171.81;;;9.96;99.26
18697;BME280;22617;43.690;27.956;2023-11-22T01:33:59;98162.31;;;9.94;98.41
18697;BME280;22617;43.690;27.956;2023-11-22T01:39:02;98159.91;;;9.82;98.59
18697;BME280;22617;43.690;27.956;2023-11-22T01:44:06;98170.31;;;9.82;99.49
18697;BME280;22617;43.690;27.956;2023-11-22T01:49:11;98166.78;;;9.86;98.67
18697;BME280;22617;43.690;27.956;2023-11-22T01:54:16;98160.69;;;9.85;98.90
18697;BME280;22617;43.690;27.956;2023-11-22T01:59:21;98165.19;;;9.76;97.81
18697;BME280;22617;43.690;27.956;2023-11-22T02:04:27;98159.19;;;9.71;98.20
18697;BME280;22617;43.690;27.956;2023-11-22T02:09:31;98155.09;;;9.53;97.34
18697;BME280;22617;43.690;27.956;2023-11-22T02:14:34;98160.44;;;9.41;98.37
18697;BME280;22617;43.690;27.956;2023-11-22T02:19:39;98152.75;;;9.35;98.53
18697;BME280;22617;43.690;27.956;2023-11-22T02:24:44;98159.66;;;9.36;98.38
18697;BME280;22617;43.690;27.956;2023-11-22T02:29:48;98157.09;;;9.33;98.66
18697;BME280;22617;43.690;27.956;2023-11-22T02:34:52;98168.41;;;9.29;98.18
18697;BME280;22617;43.690;27.956;2023-11-22T02:40:00;98151.13;;;9.25;97.65
18697;BME280;22617;43.690;27.956;2023-11-22T02:45:07;98152.88;;;9.24;97.60
18697;BME280;22617;43.690;27.956;2023-11-22T02:50:11;98157.22;;;9.22;97.72
18697;BME280;22617;43.690;27.956;2023-11-22T02:55:16;98165.94;;;9.18;97.52
18697;BME280;22617;43.690;27.956;2023-11-22T03:00:20;98179.00;;;9.12;97.21
18697;BME280;22617;43.690;27.956;2023-11-22T03:05:24;98178.19;;;9.08;97.86
18697;BME280;22617;43.690;27.956;2023-11-22T03:10:29;98171.38;;;8.98;97.35
18697;BME280;22617;43.690;27.956;2023-11-22T03:15:33;98183.53;;;8.95;97.95
18697;BME280;22617;43.690;27.956;2023-11-22T03:20:37;98189.63;;;8.92;98.41
18697;BME280;22617;43.690;27.956;2023-11-22T03:25:42;98190.53;;;8.88;97.98
18697;BME280;22617;43.690;27.956;2023-11-22T03:30:48;98191.53;;;8.75;97.85
18697;BME280;22617;43.690;27.956;2023-11-22T03:35:52;98198.47;;;8.74;98.33
18697;BME280;22617;43.690;27.956;2023-11-22T03:40:57;98215.00;;;8.67;97.76
18697;BME280;22617;43.690;27.956;2023-11-22T03:46:00;98209.81;;;8.66;97.69
18697;BME280;22617;43.690;27.956;2023-11-22T03:51:04;98208.09;;;8.63;98.12
18697;BME280;22617;43.690;27.956;2023-11-22T03:56:09;98209.00;;;8.62;98.97
18697;BME280;22617;43.690;27.956;2023-11-22T04:01:12;98203.72;;;8.68;98.67
18697;BME280;22617;43.690;27.956;2023-11-22T04:06:16;98213.31;;;8.60;97.97
18697;BME280;22617;43.690;27.956;2023-11-22T04:11:22;98225.53;;;8.52;98.25
18697;BME280;22617;43.690;27.956;2023-11-22T04:16:26;98221.28;;;8.44;98.84
18697;BME280;22617;43.690;27.956;2023-11-22T04:21:30;98232.59;;;8.32;99.14
18697;BME280;22617;43.690;27.956;2023-11-22T04:26:34;98242.09;;;8.35;99.59
18697;BME280;22617;43.690;27.956;2023-11-22T04:31:38;98232.56;;;8.38;99.46
18697;BME280;22617;43.690;27.956;2023-11-22T04:36:42;98236.06;;;8.31;99.55
18697;BME280;22617;43.690;27.956;2023-11-22T04:41:50;98238.66;;;8.32;99.56
18697;BME280;22617;43.690;27.956;2023-11-22T04:46:53;98243.81;;;8.37;100.00
18697;BME280;22617;43.690;27.956;2023-11-22T04:51:57;98252.50;;;8.30;99.55
18697;BME280;22617;43.690;27.956;2023-11-22T04:57:02;98253.38;;;8.26;100.00
18697;BME280;22617;43.690;27.956;2023-11-22T05:02:06;98251.63;;;8.34;100.00
18697;BME280;22617;43.690;27.956;2023-11-22T05:07:09;98251.63;;;8.31;100.00
18697;BME280;22617;43.690;27.956;2023-11-22T05:12:14;98271.50;;;8.35;100.00
18697;BME280;22617;43.690;27.956;2023-11-22T05:17:18;98264.59;;;8.37;100.00
18697;BME280;22617;43.690;27.956;2023-11-22T05:22:22;98260.25;;;8.39;100.00
18697;BME280;22617;43.690;27.956;2023-11-22T05:27:27;98265.44;;;8.39;100.00
18697;BME280;22617;43.690;27.956;2023-11-22T05:32:32;98281.88;;;8.38;100.00
18697;BME280;22617;43.690;27.956;2023-11-22T05:37:36;98281.81;;;8.44;100.00
18697;BME280;22617;43.690;27.956;2023-11-22T05:42:41;98300.91;;;8.42;100.00
18697;BME280;22617;43.690;27.956;2023-11-22T05:47:45;98280.09;;;8.45;100.00
18697;BME280;22617;43.690;27.956;2023-11-22T05:52:48;98285.22;;;8.54;100.00
18697;BME280;22617;43.690;27.956;2023-11-22T05:57:53;98296.50;;;8.50;100.00
18697;BME280;22617;43.690;27.956;2023-11-22T06:02:57;98285.22;;;8.58;100.00
18697;BME280;22617;43.690;27.956;2023-11-22T06:08:01;98287.66;;;8.75;100.00
18697;BME280;22617;43.690;27.956;2023-11-22T06:13:06;98303.16;;;8.87;100.00
18697;BME280;22617;43.690;27.956;2023-11-22T06:18:10;98314.31;;;9.00;100.00
18697;BME280;22617;43.690;27.956;2023-11-22T06:23:16;98315.06;;;9.11;100.00
18697;BME280;22617;43.690;27.956;2023-11-22T06:28:21;98324.44;;;9.26;100.00
18697;BME280;22617;43.690;27.956;2023-11-22T06:33:25;98332.09;;;9.41;100.00
18697;BME280;22617;43.690;27.956;2023-11-22T06:38:29;98320.72;;;9.52;100.00
18697;BME280;22617;43.690;27.956;2023-11-22T06:43:34;98321.47;;;9.63;100.00
18697;BME280;22617;43.690;27.956;2023-11-22T06:48:38;98324.72;;;9.81;100.00
18697;BME280;22617;43.690;27.956;2023-11-22T06:53:41;98316.75;;;9.93;100.00
18697;BME280;22617;43.690;27.956;2023-11-22T06:58:46;98315.72;;;10.06;100.00
18697;BME280;22617;43.690;27.956;2023-11-22T07:03:50;98321.75;;;10.11;100.00
18697;BME280;22617;43.690;27.956;2023-11-22T07:08:54;98331.22;;;10.18;100.00
18697;BME280;22617;43.690;27.956;2023-11-22T07:13:59;98320.72;;;10.24;100.00
18697;BME280;22617;43.690;27.956;2023-11-22T07:19:02;98344.91;;;10.32;100.00
18697;BME280;22617;43.690;27.956;2023-11-22T07:24:09;98350.09;;;10.35;100.00
18697;BME280;22617;43.690;27.956;2023-11-22T07:29:17;98332.38;;;10.59;100.00
18697;BME280;22617;43.690;27.956;2023-11-22T07:34:21;98349.84;;;10.50;100.00
18697;BME280;22617;43.690;27.956;2023-11-22T07:39:25;98361.19;;;10.46;100.00
18697;BME280;22617;43.690;27.956;2023-11-22T07:44:30;98379.44;;;10.48;100.00
18697;BME280;22617;43.690;27.956;2023-11-22T07:49:35;98406.41;;;10.42;100.00
18697;BME280;22617;43.690;27.956;2023-11-22T07:54:39;98426.28;;;10.51;100.00
18697;BME280;22617;43.690;27.956;2023-11-22T07:59:44;98436.63;;;10.57;100.00
18697;BME280;22617;43.690;27.956;2023-11-22T08:04:49;98443.56;;;10.60;100.00
18697;BME280;22617;43.690;27.956;2023-11-22T08:09:53;98452.19;;;10.62;100.00
18697;BME280;22617;43.690;27.956;2023-11-22T08:14:58;98465.22;;;10.62;100.00
18697;BME280;22617;43.690;27.956;2023-11-22T08:20:06;98469.63;;;10.57;100.00
18697;BME280;22617;43.690;27.956;2023-11-22T08:25:16;98463.53;;;10.59;100.00
18697;BME280;22617;43.690;27.956;2023-11-22T08:30:22;98476.53;;;10.61;100.00
18697;BME280;22617;43.690;27.956;2023-11-22T08:35:25;98497.25;;;10.70;100.00
18697;BME280;22617;43.690;27.956;2023-11-22T08:40:29;98503.38;;;10.66;100.00
18697;BME280;22617;43.690;27.956;2023-11-22T08:45:34;98505.94;;;10.70;100.00
18697;BME280;22617;43.690;27.956;2023-11-22T08:50:38;98505.94;;;10.70;100.00
18697;BME280;22617;43.690;27.956;2023-11-22T08:55:41;98507.72;;;10.67;100.00
18697;BME280;22617;43.690;27.956;2023-11-22T09:00:47;98524.16;;;10.72;100.00
18697;BME280;22617;43.690;27.956;2023-11-22T09:05:50;98509.31;;;10.78;100.00
18697;BME280;22617;43.690;27.956;2023-11-22T09:10:55;98509.28;;;10.83;100.00
18697;BME280;22617;43.690;27.956;2023-11-22T09:16:00;98504.06;;;10.83;100.00
18697;BME280;22617;43.690;27.956;2023-11-22T09:21:07;98510.03;;;10.89;100.00
18697;BME280;22617;43.690;27.956;2023-11-22T09:26:11;98505.75;;;10.84;100.00
18697;BME280;22617;43.690;27.956;2023-11-22T09:31:16;98511.94;;;10.77;100.00
18697;BME280;22617;43.690;27.956;2023-11-22T09:36:22;98527.59;;;10.77;100.00
18697;BME280;22617;43.690;27.956;2023-11-22T09:41:29;98535.34;;;10.83;100.00
18697;BME280;22617;43.690;27.956;2023-11-22T09:46:34;98534.41;;;10.85;100.00
18697;BME280;22617;43.690;27.956;2023-11-22T09:51:40;98530.81;;;10.96;100.00
18697;BME280;22617;43.690;27.956;2023-11-22T09:56:46;98533.16;;;11.15;100.00
18697;BME280;22617;43.690;27.956;2023-11-22T10:01:54;98539.09;;;11.26;100.00
18697;BME280;22617;43.690;27.956;2023-11-22T10:06:58;98536.28;;;11.40;100.00
18697;BME280;22617;43.690;27.956;2023-11-22T10:12:02;98532.59;;;11.55;100.00
18697;BME280;22617;43.690;27.956;2023-11-22T10:17:07;98539.47;;;11.59;99.34
18697;BME280;22617;43.690;27.956;2023-11-22T10:22:12;98541.94;;;11.66;99.33
18697;BME280;22617;43.690;27.956;2023-11-22T10:27:19;98550.00;;;11.53;97.77
18697;BME280;22617;43.690;27.956;2023-11-22T10:32:25;98536.66;;;11.74;96.37
18697;BME280;22617;43.690;27.956;2023-11-22T10:37:32;98561.94;;;11.69;94.19
18697;BME280;22617;43.690;27.956;2023-11-22T10:42:36;98557.34;;;11.86;94.67
18697;BME280;22617;43.690;27.956;2023-11-22T10:47:45;98566.28;;;11.70;93.81
18697;BME280;22617;43.690;27.956;2023-11-22T10:52:51;98589.06;;;11.60;94.54
18697;BME280;22617;43.690;27.956;2023-11-22T10:58:04;98591.81;;;11.50;93.11
18697;BME280;22617;43.690;27.956;2023-11-22T11:03:14;98603.19;;;11.46;92.93
18697;BME280;22617;43.690;27.956;2023-11-22T11:08:17;98599.72;;;11.44;93.59
18697;BME280;22617;43.690;27.956;2023-11-22T11:13:22;98604.81;;;11.51;95.12
18697;BME280;22617;43.690;27.956;2023-11-22T11:18:28;98604.13;;;11.38;95.74
18697;BME280;22617;43.690;27.956;2023-11-22T11:23:32;98613.41;;;11.59;95.95
18697;BME280;22617;43.690;27.956;2023-11-22T11:28:42;98613.56;;;11.50;96.26
18697;BME280;22617;43.690;27.956;2023-11-22T11:33:55;98618.03;;;11.39;96.50
18697;BME280;22617;43.690;27.956;2023-11-22T11:39:01;98625.31;;;11.17;96.01
18697;BME280;22617;43.690;27.956;2023-11-22T11:44:07;98633.31;;;11.02;96.65
18697;BME280;22617;43.690;27.956;2023-11-22T11:49:13;98636.03;;;10.93;98.19
18697;BME280;22617;43.690;27.956;2023-11-22T11:54:16;98641.34;;;10.81;99.40
18697;BME280;22617;43.690;27.956;2023-11-22T11:59:20;98642.47;;;10.56;100.00
18697;BME280;22617;43.690;27.956;2023-11-22T12:04:25;98651.13;;;10.62;100.00
18697;BME280;22617;43.690;27.956;2023-11-22T12:09:28;98662.44;;;10.57;100.00
18697;BME280;22617;43.690;27.956;2023-11-22T12:14:32;98671.13;;;10.56;100.00
18697;BME280;22617;43.690;27.956;2023-11-22T12:19:37;98676.34;;;10.56;100.00
18697;BME280;22617;43.690;27.956;2023-11-22T12:24:41;98679.81;;;10.56;100.00
18697;BME280;22617;43.690;27.956;2023-11-22T12:29:46;98679.91;;;10.45;100.00
18697;BME280;22617;43.690;27.956;2023-11-22T12:34:51;98692.00;;;10.56;100.00
18697;BME280;22617;43.690;27.956;2023-11-22T12:39:55;98704.19;;;10.54;100.00
18697;BME280;22617;43.690;27.956;2023-11-22T12:44:59;98691.13;;;10.60;100.00
18697;BME280;22617;43.690;27.956;2023-11-22T12:50:07;98696.31;;;10.58;99.67
18697;BME280;22617;43.690;27.956;2023-11-22T12:55:11;98694.59;;;10.57;100.00
18697;BME280;22617;43.690;27.956;2023-11-22T13:00:16;98702.53;;;10.43;100.00
18697;BME280;22617;43.690;27.956;2023-11-22T13:05:21;98692.06;;;10.49;100.00
18697;BME280;22617;43.690;27.956;2023-11-22T13:10:24;98710.31;;;10.48;100.00
18697;BME280;22617;43.690;27.956;2023-11-22T13:15:28;98717.44;;;10.26;100.00
18697;BME280;22617;43.690;27.956;2023-11-22T13:20:33;98721.00;;;10.10;100.00
18697;BME280;22617;43.690;27.956;2023-11-22T13:25:37;98718.41;;;10.05;100.00
18697;BME280;22617;43.690;27.956;2023-11-22T13:30:41;98715.00;;;9.96;100.00
18697;BME280;22617;43.690;27.956;2023-11-22T13:35:46;98721.09;;;9.89;100.00
18697;BME280;22617;43.690;27.956;2023-11-22T13:40:50;98721.09;;;9.92;100.00
18697;BME280;22617;43.690;27.956;2023-11-22T13:45:54;98727.22;;;9.85;100.00
18697;BME280;22617;43.690;27.956;2023-11-22T13:50:59;98727.16;;;9.94;100.00
18697;BME280;22617;43.690;27.956;2023-11-22T13:56:03;98741.97;;;9.87;100.00
18697;BME280;22617;43.690;27.956;2023-11-22T14:01:11;98744.59;;;9.83;100.00
18697;BME280;22617;43.690;27.956;2023-11-22T14:06:20;98742.84;;;9.80;100.00
18697;BME280;22617;43.690;27.956;2023-11-22T14:11:24;98742.03;;;9.72;100.00
18697;BME280;22617;43.690;27.956;2023-11-22T14:16:27;98746.38;;;9.72;100.00
18697;BME280;22617;43.690;27.956;2023-11-22T14:21:34;98747.31;;;9.57;100.00
18697;BME280;22617;43.690;27.956;2023-11-22T14:26:37;98753.41;;;9.53;100.00
18697;BME280;22617;43.690;27.956;2023-11-22T14:31:41;98743.84;;;9.52;100.00
18697;BME280;22617;43.690;27.956;2023-11-22T14:36:46;98748.19;;;9.45;100.00
18697;BME280;22617;43.690;27.956;2023-11-22T14:41:49;98765.59;;;9.39;100.00
18697;BME280;22617;43.690;27.956;2023-11-22T14:46:54;98762.97;;;9.37;100.00
18697;BME280;22617;43.690;27.956;2023-11-22T14:52:01;98770.81;;;9.28;100.00
18697;BME280;22617;43.690;27.956;2023-11-22T14:57:06;98755.22;;;9.22;100.00
18697;BME280;22617;43.690;27.956;2023-11-22T15:02:12;98754.34;;;9.23;100.00
18697;BME280;22617;43.690;27.956;2023-11-22T15:07:19;98767.34;;;9.17;100.00
18697;BME280;22617;43.690;27.956;2023-11-22T15:12:22;98772.53;;;9.31;100.00
18697;BME280;22617;43.690;27.956;2023-11-22T15:17:26;98776.00;;;9.28;100.00
18697;BME280;22617;43.690;27.956;2023-11-22T15:22:31;98778.63;;;9.24;100.00
18697;BME280;22617;43.690;27.956;2023-11-22T15:27:35;98792.47;;;9.27;100.00
18697;BME280;22617;43.690;27.956;2023-11-22T15:32:38;98806.38;;;9.08;100.00
18697;BME280;22617;43.690;27.956;2023-11-22T15:37:43;98815.91;;;9.12;100.00
18697;BME280;22617;43.690;27.956;2023-11-22T15:42:47;98831.50;;;9.03;100.00
18697;BME280;22617;43.690;27.956;2023-11-22T15:47:53;98831.53;;;8.85;100.00
18697;BME280;22617;43.690;27.956;2023-11-22T15:52:58;98860.97;;;8.88;100.00
18697;BME280;22617;43.690;27.956;2023-11-22T15:58:03;98875.69;;;8.88;100.00
18697;BME280;22617;43.690;27.956;2023-11-22T16:03:07;98885.22;;;8.80;100.00
18697;BME280;22617;43.690;27.956;2023-11-22T16:08:21;98906.88;;;8.82;100.00
18697;BME280;22617;43.690;27.956;2023-11-22T16:13:24;98912.06;;;8.75;100.00
18697;BME280;22617;43.690;27.956;2023-11-22T16:18:28;98922.44;;;8.57;100.00
18697;BME280;22617;43.690;27.956;2023-11-22T16:23:34;98923.28;;;8.52;100.00
18697;BME280;22617;43.690;27.956;2023-11-22T16:28:37;98931.91;;;8.45;100.00
18697;BME280;22617;43.690;27.956;2023-11-22T16:33:41;98934.50;;;8.54;100.00
18697;BME280;22617;43.690;27.956;2023-11-22T16:38:46;98933.63;;;8.41;100.00
18697;BME280;22617;43.690;27.956;2023-11-22T16:43:51;98936.22;;;8.34;100.00
18697;BME280;22617;43.690;27.956;2023-11-22T16:48:54;98935.34;;;8.33;100.00
18697;BME280;22617;43.690;27.956;2023-11-22T16:54:00;98957.78;;;8.28;100.00
18697;BME280;22617;43.690;27.956;2023-11-22T16:59:04;98946.50;;;8.23;100.00
18697;BME280;22617;43.690;27.956;2023-11-22T17:04:08;98952.47;;;8.07;100.00
18697;BME280;22617;43.690;27.956;2023-11-22T17:09:13;98958.50;;;8.01;100.00
18697;BME280;22617;43.690;27.956;2023-11-22T17:14:18;98972.34;;;8.02;100.00
18697;BME280;22617;43.690;27.956;2023-11-22T17:19:21;98974.94;;;7.99;100.00
18697;BME280;22617;43.690;27.956;2023-11-22T17:24:26;98972.47;;;8.23;100.00
18697;BME280;22617;43.690;27.956;2023-11-22T17:29:30;98981.88;;;8.00;100.00
18697;BME280;22617;43.690;27.956;2023-11-22T17:34:33;98987.06;;;8.06;100.00
18697;BME280;22617;43.690;27.956;2023-11-22T17:39:39;98997.44;;;8.03;100.00
18697;BME280;22617;43.690;27.956;2023-11-22T17:44:43;99006.06;;;7.99;100.00
18697;BME280;22617;43.690;27.956;2023-11-22T17:49:51;99012.97;;;7.94;100.00
18697;BME280;22617;43.690;27.956;2023-11-22T17:54:56;99024.25;;;7.99;100.00
18697;BME280;22617;43.690;27.956;2023-11-22T18:00:00;99031.13;;;7.97;100.00
18697;BME280;22617;43.690;27.956;2023-11-22T18:05:18;99037.19;;;7.97;100.00
18697;BME280;22617;43.690;27.956;2023-11-22T18:10:24;99031.09;;;7.86;100.00
18697;BME280;22617;43.690;27.956;2023-11-22T18:15:42;99028.53;;;7.94;100.00
18697;BME280;22617;43.690;27.956;2023-11-22T18:20:46;99046.59;;;7.83;100.00
18697;BME280;22617;43.690;27.956;2023-11-22T18:25:51;99056.19;;;7.90;100.00
18697;BME280;22617;43.690;27.956;2023-11-22T18:30:55;99052.75;;;7.97;100.00
18697;BME280;22617;43.690;27.956;2023-11-22T18:35:59;99060.41;;;7.77;100.00
18697;BME280;22617;43.690;27.956;2023-11-22T18:41:05;99075.03;;;7.66;100.00
18697;BME280;22617;43.690;27.956;2023-11-22T18:46:09;99088.81;;;7.62;100.00
18697;BME280;22617;43.690;27.956;2023-11-22T18:51:12;99098.16;;;7.45;100.00
18697;BME280;22617;43.690;27.956;2023-11-22T18:56:17;99108.53;;;7.45;100.00
18697;BME280;22617;43.690;27.956;2023-11-22T19:01:20;99110.19;;;7.37;100.00
18697;BME280;22617;43.690;27.956;2023-11-22T19:06:24;99122.91;;;7.16;100.00
18697;BME280;22617;43.690;27.956;2023-11-22T19:11:30;99119.47;;;7.20;100.00
18697;BME280;22617;43.690;27.956;2023-11-22T19:16:33;99119.50;;;7.21;100.00
18697;BME280;22617;43.690;27.956;2023-11-22T19:21:37;99140.09;;;7.08;100.00
18697;BME280;22617;43.690;27.956;2023-11-22T19:26:42;99147.69;;;6.95;100.00
18697;BME280;22617;43.690;27.956;2023-11-22T19:31:47;99139.25;;;7.09;100.00
18697;BME280;22617;43.690;27.956;2023-11-22T19:36:51;99142.69;;;7.08;100.00
18697;BME280;22617;43.690;27.956;2023-11-22T19:41:58;99160.94;;;7.20;100.00
18697;BME280;22617;43.690;27.956;2023-11-22T19:47:03;99159.72;;;6.89;100.00
18697;BME280;22617;43.690;27.956;2023-11-22T19:52:06;99180.34;;;6.83;100.00
18697;BME280;22617;43.690;27.956;2023-11-22T19:57:11;99194.16;;;6.82;100.00
18697;BME280;22617;43.690;27.956;2023-11-22T20:02:15;99199.31;;;6.82;100.00
18697;BME280;22617;43.690;27.956;2023-11-22T20:07:19;99204.53;;;6.83;100.00
18697;BME280;22617;43.690;27.956;2023-11-22T20:12:24;99213.22;;;6.85;100.00
18697;BME280;22617;43.690;27.956;2023-11-22T20:17:28;99216.81;;;6.95;100.00
18697;BME280;22617;43.690;27.956;2023-11-22T20:22:32;99215.66;;;6.76;100.00
18697;BME280;22617;43.690;27.956;2023-11-22T20:27:37;99215.75;;;6.82;100.00
18697;BME280;22617;43.690;27.956;2023-11-22T20:32:40;99213.06;;;6.75;100.00
18697;BME280;22617;43.690;27.956;2023-11-22T20:37:44;99217.34;;;6.71;100.00
18697;BME280;22617;43.690;27.956;2023-11-22T20:42:48;99234.88;;;6.90;100.00
18697;BME280;22617;43.690;27.956;2023-11-22T20:47:52;99241.56;;;6.76;100.00
18697;BME280;22617;43.690;27.956;2023-11-22T20:52:56;99265.63;;;6.69;100.00
18697;BME280;22617;43.690;27.956;2023-11-22T20:58:01;99276.78;;;6.65;100.00
18697;BME280;22617;43.690;27.956;2023-11-22T21:03:05;99293.16;;;6.64;100.00
18697;BME280;22617;43.690;27.956;2023-11-22T21:08:09;99298.16;;;6.52;100.00
18697;BME280;22617;43.690;27.956;2023-11-22T21:13:24;99310.28;;;6.54;100.00
18697;BME280;22617;43.690;27.956;2023-11-22T21:18:28;99317.16;;;6.54;100.00
18697;BME280;22617;43.690;27.956;2023-11-22T21:23:32;99318.88;;;6.52;100.00
18697;BME280;22617;43.690;27.956;2023-11-22T21:28:37;99340.44;;;6.51;100.00
18697;BME280;22617;43.690;27.956;2023-11-22T21:33:41;99342.84;;;6.42;100.00
18697;BME280;22617;43.690;27.956;2023-11-22T21:38:47;99354.13;;;6.45;100.00
18697;BME280;22617;43.690;27.956;2023-11-22T21:43:53;99364.44;;;6.44;100.00
18697;BME280;22617;43.690;27.956;2023-11-22T21:48:58;99377.56;;;6.51;100.00
18697;BME280;22617;43.690;27.956;2023-11-22T21:54:03;99393.72;;;6.40;100.00
18697;BME280;22617;43.690;27.956;2023-11-22T21:59:09;99384.88;;;6.27;100.00
18697;BME280;22617;43.690;27.956;2023-11-22T22:04:13;99377.28;;;6.36;100.00
18697;BME280;22617;43.690;27.956;2023-11-22T22:09:18;99374.81;;;6.44;100.00
18697;BME280;22617;43.690;27.956;2023-11-22T22:14:25;99379.16;;;6.45;100.00
18697;BME280;22617;43.690;27.956;2023-11-22T22:19:29;99384.31;;;6.45;100.00
18697;BME280;22617;43.690;27.956;2023-11-22T22:24:33;99401.53;;;6.43;100.00
18697;BME280;22617;43.690;27.956;2023-11-22T22:29:39;99400.63;;;6.39;100.00
18697;BME280;22617;43.690;27.956;2023-11-22T22:34:43;99395.44;;;6.38;100.00
18697;BME280;22617;43.690;27.956;2023-11-22T22:39:48;99401.50;;;6.40;100.00
18697;BME280;22617;43.690;27.956;2023-11-22T22:44:53;99385.19;;;6.45;100.00
18697;BME280;22617;43.690;27.956;2023-11-22T23:02:35;99419.69;;;5.99;100.00
18697;BME280;22617;43.690;27.956;2023-11-22T23:07:39;99421.66;;;6.14;100.00
18697;BME280;22617;43.690;27.956;2023-11-22T23:12:43;99430.25;;;6.11;100.00
18697;BME280;22617;43.690;27.956;2023-11-22T23:17:49;99429.94;;;5.96;100.00
18697;BME280;22617;43.690;27.956;2023-11-22T23:22:54;99431.97;;;6.11;100.00
18697;BME280;22617;43.690;27.956;2023-11-22T23:27:58;99458.44;;;5.98;100.00
18697;BME280;22617;43.690;27.956;2023-11-22T23:33:03;99458.03;;;5.81;100.00
18697;BME280;22617;43.690;27.956;2023-11-22T23:38:07;99472.97;;;5.93;100.00
18697;BME280;22617;43.690;27.956;2023-11-22T23:43:11;99470.75;;;5.72;100.00
18697;BME280;22617;43.690;27.956;2023-11-22T23:48:17;99470.75;;;5.72;100.00
18697;BME280;22617;43.690;27.956;2023-11-22T23:53:21;99487.44;;;5.49;100.00
18697;BME280;22617;43.690;27.956;2023-11-22T23:58:26;99482.97;;;5.42;100.00
